Time;durP1;ratioP1;P1;durP2;ratioP2;P2;SDS_P1;SDS_P2;PMS_P1;PMS_P2;Temp;Humidity;BMP_temperature;BMP_pressure;BME280_temperature;BME280_humidity;BME280_pressure;Samples;Min_cycle;Max_cycle;Signal;HPM_P1;HPM_P2
2022/07/22 00:00:51;;;;;;;15.60;9.13;;;15.80;99.90;;;;;;5114980;28;20245;-60
2022/07/22 00:03:18;;;;;;;16.77;9.93;;;15.80;99.90;;;;;;5115404;28;20250;-60
2022/07/22 00:05:44;;;;;;;18.13;9.67;;;15.80;99.90;;;;;;5115203;27;20257;-60
2022/07/22 00:08:12;;;;;;;22.20;9.73;;;15.80;99.90;;;;;;5114775;28;20260;-60
2022/07/22 00:10:39;;;;;;;15.47;9.63;;;15.80;99.90;;;;;;5114604;28;20227;-60
2022/07/22 00:13:06;;;;;;;15.83;9.07;;;15.80;99.90;;;;;;5114840;28;20698;-60
2022/07/22 00:15:32;;;;;;;20.77;10.80;;;15.80;99.90;;;;;;5114765;28;20618;-61
2022/07/22 00:17:59;;;;;;;15.67;9.53;;;15.80;99.90;;;;;;5114560;28;20208;-60
2022/07/22 00:20:26;;;;;;;14.07;9.30;;;15.80;99.90;;;;;;5114657;28;20674;-61
2022/07/22 00:22:53;;;;;;;15.47;9.50;;;15.80;99.90;;;;;;5114755;28;20207;-60
2022/07/22 00:25:21;;;;;;;16.47;9.57;;;15.70;99.90;;;;;;5114660;28;20203;-60
2022/07/22 00:27:48;;;;;;;14.87;9.17;;;15.70;99.90;;;;;;5114272;27;20203;-59
2022/07/22 00:30:14;;;;;;;19.43;9.90;;;15.60;99.90;;;;;;5114278;28;20695;-59
2022/07/22 00:32:41;;;;;;;19.40;10.27;;;15.60;99.90;;;;;;5114584;28;20576;-59
2022/07/22 00:35:08;;;;;;;15.37;9.87;;;15.70;99.90;;;;;;5114870;28;20207;-59
2022/07/22 00:37:35;;;;;;;18.57;9.80;;;15.70;99.90;;;;;;5114232;28;20260;-58
2022/07/22 00:40:02;;;;;;;18.43;10.20;;;15.70;99.90;;;;;;5114360;28;20228;-60
2022/07/22 00:42:30;;;;;;;18.97;9.57;;;15.70;99.90;;;;;;5113942;27;20290;-60
2022/07/22 00:44:56;;;;;;;19.20;10.03;;;15.80;99.90;;;;;;5114562;28;20207;-59
2022/07/22 00:47:24;;;;;;;16.77;9.60;;;15.70;99.90;;;;;;5114056;28;20615;-60
2022/07/22 00:49:50;;;;;;;16.77;8.70;;;15.60;99.90;;;;;;5113935;28;20223;-59
2022/07/22 00:52:19;;;;;;;16.87;9.27;;;15.60;99.90;;;;;;5114209;28;20705;-60
2022/07/22 00:54:46;;;;;;;16.00;9.63;;;15.60;99.90;;;;;;5113853;28;20207;-58
2022/07/22 00:57:13;;;;;;;15.03;8.27;;;15.60;99.90;;;;;;5113636;28;20688;-61
2022/07/22 00:59:42;;;;;;;16.43;9.40;;;15.60;99.90;;;;;;5114018;28;20227;-60
2022/07/22 01:02:09;;;;;;;14.73;9.37;;;15.60;99.90;;;;;;5114147;28;20199;-59
2022/07/22 01:04:36;;;;;;;17.73;10.80;;;15.60;99.90;;;;;;5113909;28;20200;-59
2022/07/22 01:07:03;;;;;;;18.27;11.33;;;15.50;99.90;;;;;;5113609;27;20203;-60
2022/07/22 01:09:30;;;;;;;21.67;11.97;;;15.50;99.90;;;;;;5113592;28;20231;-58
2022/07/22 01:11:57;;;;;;;23.10;12.87;;;15.50;99.90;;;;;;5113734;28;20219;-60
2022/07/22 01:14:23;;;;;;;19.73;12.67;;;15.50;99.90;;;;;;5113801;28;20614;-60
2022/07/22 01:16:51;;;;;;;23.50;12.20;;;15.50;99.90;;;;;;5113413;28;20260;-60
2022/07/22 01:19:18;;;;;;;22.93;12.77;;;15.60;99.90;;;;;;5113460;28;20227;-60
2022/07/22 01:21:46;;;;;;;28.67;13.83;;;15.60;99.90;;;;;;5113460;28;20208;-60
2022/07/22 01:24:13;;;;;;;23.10;12.23;;;15.60;99.90;;;;;;5113472;28;20206;-60
2022/07/22 01:26:40;;;;;;;19.30;12.47;;;15.60;99.90;;;;;;5113291;28;20203;-59
2022/07/22 01:29:08;;;;;;;19.30;12.13;;;15.70;99.90;;;;;;5113690;28;20245;-60
2022/07/22 01:31:35;;;;;;;24.23;12.20;;;15.70;99.90;;;;;;5113421;28;20296;-60
2022/07/22 01:34:01;;;;;;;20.13;12.00;;;15.60;99.90;;;;;;5113466;28;20204;-60
2022/07/22 01:36:28;;;;;;;21.77;13.00;;;15.60;99.90;;;;;;5112881;28;20204;-61
2022/07/22 01:38:56;;;;;;;17.67;9.93;;;15.60;99.90;;;;;;5113108;28;20224;-60
2022/07/22 01:41:23;;;;;;;18.67;11.07;;;15.60;99.90;;;;;;5112465;28;20248;-60
2022/07/22 01:43:50;;;;;;;18.23;10.70;;;15.60;99.90;;;;;;5113240;28;20203;-60
2022/07/22 01:46:18;;;;;;;19.20;10.90;;;15.60;99.90;;;;;;5112817;28;20203;-60
2022/07/22 01:48:45;;;;;;;21.03;10.07;;;15.50;99.90;;;;;;5113237;28;20666;-60
2022/07/22 01:51:12;;;;;;;15.53;9.80;;;15.50;99.90;;;;;;5112781;28;20587;-59
2022/07/22 01:53:38;;;;;;;14.13;8.50;;;15.50;99.90;;;;;;5112817;27;20256;-58
2022/07/22 01:56:07;;;;;;;19.50;9.63;;;15.50;99.90;;;;;;5112810;28;20212;-59
2022/07/22 01:58:33;;;;;;;17.83;9.73;;;15.50;99.90;;;;;;5112654;28;20689;-59
2022/07/22 02:01:00;;;;;;;16.17;8.50;;;15.50;99.90;;;;;;5113511;28;20574;-59
2022/07/22 02:03:27;;;;;;;15.03;7.93;;;15.50;99.90;;;;;;5112684;28;20265;-60
2022/07/22 02:05:53;;;;;;;13.97;7.40;;;15.50;99.90;;;;;;5112589;28;20331;-58
2022/07/22 02:08:20;;;;;;;13.53;7.93;;;15.50;99.90;;;;;;5112688;28;20216;-60
2022/07/22 02:10:47;;;;;;;15.70;7.90;;;15.40;99.90;;;;;;5112612;28;20733;-60
2022/07/22 02:13:15;;;;;;;18.13;8.33;;;15.30;99.90;;;;;;5112409;28;20207;-60
2022/07/22 02:15:42;;;;;;;18.03;8.70;;;15.30;99.90;;;;;;5112782;28;20208;-59
2022/07/22 02:18:13;;;;;;;16.80;7.87;;;15.30;99.90;;;;;;5112116;28;20200;-60
2022/07/22 02:20:40;;;;;;;14.13;7.67;;;15.40;99.90;;;;;;5112453;28;20227;-61
2022/07/22 02:23:07;;;;;;;16.50;7.20;;;15.30;99.90;;;;;;5112615;28;20605;-60
2022/07/22 02:25:34;;;;;;;16.33;6.93;;;15.30;99.90;;;;;;5112276;28;20203;-61
2022/07/22 02:28:01;;;;;;;15.60;7.20;;;15.30;99.90;;;;;;5111130;28;20256;-60
2022/07/22 02:30:30;;;;;;;15.73;7.67;;;15.30;99.90;;;;;;5112528;28;20219;-60
2022/07/22 02:32:57;;;;;;;14.77;6.97;;;15.40;99.90;;;;;;5112307;28;20240;-60
2022/07/22 02:35:23;;;;;;;17.87;7.93;;;15.40;99.90;;;;;;5112582;28;20210;-60
2022/07/22 02:37:50;;;;;;;14.93;8.40;;;15.50;99.90;;;;;;5112204;28;20248;-59
2022/07/22 02:40:17;;;;;;;12.00;7.63;;;15.40;99.90;;;;;;5112203;28;20227;-60
2022/07/22 02:42:43;;;;;;;16.47;8.00;;;15.30;99.90;;;;;;5113912;28;20207;-60
2022/07/22 02:45:10;;;;;;;16.00;7.67;;;15.30;99.90;;;;;;5117586;28;20199;-60
2022/07/22 02:47:50;;;;;;;19.23;7.40;;;15.30;99.90;;;;;;5117527;28;20472;-59
2022/07/22 02:50:17;;;;;;;13.60;7.03;;;15.30;99.90;;;;;;5116271;28;20642;-61
2022/07/22 02:52:44;;;;;;;14.67;7.33;;;15.30;99.90;;;;;;5113110;28;20231;-60
2022/07/22 02:55:11;;;;;;;16.00;8.00;;;15.30;99.90;;;;;;5116398;28;20202;-60
2022/07/22 02:57:38;;;;;;;24.47;8.63;;;15.20;99.90;;;;;;5117339;28;20614;-60
2022/07/22 03:00:07;;;;;;;17.23;8.03;;;15.20;99.90;;;;;;5117080;28;20255;-60
2022/07/22 03:02:33;;;;;;;23.33;9.70;;;15.20;99.90;;;;;;5116588;28;20267;-58
2022/07/22 03:05:01;;;;;;;23.00;9.80;;;15.20;99.90;;;;;;5116273;28;20203;-59
2022/07/22 03:07:28;;;;;;;20.80;9.27;;;15.20;99.90;;;;;;5116163;28;20626;-60
2022/07/22 03:09:55;;;;;;;22.60;9.50;;;15.30;99.90;;;;;;5116231;28;20227;-60
2022/07/22 03:12:22;;;;;;;18.53;9.60;;;15.20;99.90;;;;;;5115840;28;20226;-57
2022/07/22 03:14:48;;;;;;;15.37;9.13;;;15.30;99.90;;;;;;5116055;28;20204;-59
2022/07/22 03:17:15;;;;;;;23.73;9.50;;;15.30;99.90;;;;;;5115729;28;20207;-59
2022/07/22 03:19:42;;;;;;;21.03;9.37;;;15.20;99.90;;;;;;5115736;28;20284;-58
2022/07/22 03:22:10;;;;;;;25.50;10.43;;;15.20;99.90;;;;;;5115801;28;20549;-56
2022/07/22 03:24:36;;;;;;;20.17;10.77;;;15.20;99.90;;;;;;5115827;28;20208;-57
2022/07/22 03:27:03;;;;;;;22.50;9.80;;;15.20;99.90;;;;;;5115182;28;20670;-60
2022/07/22 03:29:30;;;;;;;17.57;9.37;;;15.20;99.90;;;;;;5115980;27;20277;-59
2022/07/22 03:31:56;;;;;;;20.97;11.50;;;15.10;99.90;;;;;;5115759;28;20227;-58
2022/07/22 03:34:24;;;;;;;16.87;9.43;;;15.20;99.90;;;;;;5115347;28;20257;-59
2022/07/22 03:36:51;;;;;;;14.83;8.57;;;15.20;99.90;;;;;;5115572;28;20183;-59
2022/07/22 03:39:18;;;;;;;17.67;8.63;;;15.20;99.90;;;;;;5115114;28;20227;-61
2022/07/22 03:41:45;;;;;;;22.17;8.43;;;15.20;99.90;;;;;;5115439;27;20200;-61
2022/07/22 03:44:12;;;;;;;15.13;8.33;;;15.20;99.90;;;;;;5115468;28;20276;-61
2022/07/22 03:46:38;;;;;;;17.80;7.37;;;15.10;99.90;;;;;;5115055;28;20880;-61
2022/07/22 03:49:05;;;;;;;14.33;6.73;;;15.10;99.90;;;;;;5114809;28;20231;-61
2022/07/22 03:51:32;;;;;;;16.13;6.17;;;15.10;99.90;;;;;;5115120;28;20260;-61
2022/07/22 03:53:59;;;;;;;20.43;6.80;;;14.90;99.90;;;;;;5115022;28;20207;-61
2022/07/22 03:56:27;;;;;;;18.03;6.37;;;14.90;99.90;;;;;;5114666;28;20264;-61
2022/07/22 03:58:54;;;;;;;17.33;6.37;;;14.90;99.90;;;;;;5114957;28;20223;-59
2022/07/22 04:01:21;;;;;;;15.20;6.50;;;14.90;99.90;;;;;;5115279;28;20211;-61
2022/07/22 04:03:48;;;;;;;12.87;5.60;;;14.90;99.90;;;;;;5114431;28;20730;-61
2022/07/22 04:06:15;;;;;;;16.07;5.80;;;15.00;99.90;;;;;;5114314;28;20673;-61
2022/07/22 04:08:42;;;;;;;15.60;5.73;;;15.00;99.90;;;;;;5114564;28;20248;-61
2022/07/22 04:11:09;;;;;;;11.23;5.50;;;15.10;99.90;;;;;;5114631;28;20207;-61
2022/07/22 04:13:37;;;;;;;12.77;5.70;;;15.20;99.90;;;;;;5115142;28;20255;-62
2022/07/22 04:16:04;;;;;;;17.50;6.13;;;15.20;99.90;;;;;;5114364;28;20207;-61
2022/07/22 04:18:31;;;;;;;16.17;6.13;;;15.20;99.90;;;;;;5114821;28;20276;-61
2022/07/22 04:20:58;;;;;;;13.47;5.90;;;15.20;99.90;;;;;;5114631;28;20200;-61
2022/07/22 04:23:25;;;;;;;16.50;6.23;;;15.20;99.90;;;;;;5114641;28;20257;-60
2022/07/22 04:25:52;;;;;;;13.63;7.10;;;15.20;99.90;;;;;;5114428;28;20204;-61
2022/07/22 04:28:19;;;;;;;13.67;7.10;;;15.20;99.90;;;;;;5114545;28;20207;-61
2022/07/22 04:30:47;;;;;;;14.23;7.57;;;15.20;99.90;;;;;;5114389;28;20231;-60
2022/07/22 04:33:14;;;;;;;10.13;7.20;;;15.20;99.90;;;;;;5114378;28;20292;-61
2022/07/22 04:35:40;;;;;;;14.97;8.20;;;15.30;99.90;;;;;;5114306;28;20203;-60
2022/07/22 04:38:07;;;;;;;14.00;8.20;;;15.40;99.90;;;;;;5113731;28;20254;-60
2022/07/22 04:40:34;;;;;;;11.73;7.07;;;15.50;99.90;;;;;;5114378;27;20224;-60
2022/07/22 04:43:00;;;;;;;10.97;6.90;;;15.50;99.90;;;;;;5114092;27;20208;-60
2022/07/22 04:45:27;;;;;;;16.77;7.27;;;15.50;99.90;;;;;;5112342;28;20691;-60
2022/07/22 04:47:55;;;;;;;19.20;6.57;;;15.50;99.90;;;;;;5112619;28;20343;-60
2022/07/22 04:50:22;;;;;;;12.20;6.40;;;15.50;99.90;;;;;;5113605;28;20723;-60
2022/07/22 04:52:48;;;;;;;9.93;6.10;;;15.40;99.90;;;;;;5113933;28;20235;-60
2022/07/22 04:55:15;;;;;;;11.87;6.43;;;15.50;99.90;;;;;;5114331;28;20232;-59
2022/07/22 04:57:42;;;;;;;9.27;5.53;;;15.50;99.90;;;;;;5113412;28;20233;-57
2022/07/22 05:00:10;;;;;;;11.30;5.97;;;15.50;99.90;;;;;;5113816;28;20220;-59
2022/07/22 05:02:37;;;;;;;12.00;5.87;;;15.50;99.90;;;;;;5113521;28;20677;-59
2022/07/22 05:05:06;;;;;;;11.00;5.87;;;15.50;99.90;;;;;;5113525;28;20207;-59
2022/07/22 05:07:33;;;;;;;11.63;5.40;;;15.50;99.90;;;;;;5113671;28;20204;-59
2022/07/22 05:09:59;;;;;;;12.93;5.30;;;15.50;99.90;;;;;;5113454;28;20280;-59
2022/07/22 05:12:26;;;;;;;10.87;5.70;;;15.40;99.90;;;;;;5113474;28;20270;-60
2022/07/22 05:14:52;;;;;;;8.03;5.57;;;15.40;99.90;;;;;;5113510;28;20211;-58
2022/07/22 05:17:19;;;;;;;7.37;5.70;;;15.50;99.90;;;;;;5112628;28;20246;-58
2022/07/22 05:19:46;;;;;;;10.53;5.50;;;15.60;99.90;;;;;;5112950;28;20236;-59
2022/07/22 05:22:14;;;;;;;8.40;5.00;;;15.60;99.90;;;;;;5113485;28;20615;-58
2022/07/22 05:24:41;;;;;;;9.30;4.43;;;15.60;99.90;;;;;;5113842;28;20256;-59
2022/07/22 05:27:07;;;;;;;10.27;4.80;;;15.60;99.90;;;;;;5112412;28;20245;-61
2022/07/22 05:29:34;;;;;;;8.70;4.27;;;15.60;99.90;;;;;;5113034;28;20227;-60
2022/07/22 05:32:01;;;;;;;8.57;3.90;;;15.60;99.90;;;;;;5112559;28;20264;-60
2022/07/22 05:34:27;;;;;;;8.27;4.27;;;15.40;99.90;;;;;;5112865;28;20203;-60
2022/07/22 05:36:54;;;;;;;9.10;3.87;;;15.40;99.90;;;;;;5112326;28;20204;-60
2022/07/22 05:39:22;;;;;;;9.30;3.97;;;15.50;99.90;;;;;;5112781;28;20223;-60
2022/07/22 05:41:49;;;;;;;8.00;2.90;;;15.40;99.90;;;;;;5112414;28;20610;-60
2022/07/22 05:44:15;;;;;;;10.07;3.43;;;15.50;99.90;;;;;;5111981;28;20211;-61
2022/07/22 05:46:42;;;;;;;7.47;2.93;;;15.50;99.90;;;;;;5111985;28;20211;-60
2022/07/22 05:49:09;;;;;;;11.80;3.83;;;15.50;99.90;;;;;;5112684;28;20282;-60
2022/07/22 05:51:35;;;;;;;6.03;3.17;;;15.50;99.90;;;;;;5112818;28;20212;-60
2022/07/22 05:54:03;;;;;;;6.50;3.70;;;15.50;99.90;;;;;;5112333;28;20298;-60
2022/07/22 05:56:31;;;;;;;8.60;4.10;;;15.40;99.90;;;;;;5112497;28;20219;-64
2022/07/22 05:58:58;;;;;;;6.73;3.70;;;15.50;99.90;;;;;;5111921;28;20312;-62
2022/07/22 06:01:26;;;;;;;5.63;3.60;;;15.60;99.90;;;;;;5112306;28;20207;-61
2022/07/22 06:03:52;;;;;;;6.90;4.23;;;15.70;99.90;;;;;;5112379;28;20550;-62
2022/07/22 06:06:19;;;;;;;8.57;3.87;;;15.60;99.90;;;;;;5112232;28;20212;-62
2022/07/22 06:08:46;;;;;;;11.37;4.03;;;15.70;99.90;;;;;;5112145;28;20219;-62
2022/07/22 06:11:13;;;;;;;12.07;4.47;;;15.70;99.90;;;;;;5112470;28;20209;-62
2022/07/22 06:13:41;;;;;;;9.20;4.00;;;15.80;99.90;;;;;;5112092;27;20226;-61
2022/07/22 06:16:08;;;;;;;6.63;3.73;;;15.80;99.90;;;;;;5111553;28;20793;-62
2022/07/22 06:18:35;;;;;;;7.57;3.97;;;15.80;99.90;;;;;;5112123;28;20688;-60
2022/07/22 06:21:01;;;;;;;5.77;4.13;;;15.70;99.90;;;;;;5111821;28;20203;-61
2022/07/22 06:23:28;;;;;;;9.67;4.53;;;15.70;99.90;;;;;;5112337;28;20204;-65
2022/07/22 06:25:55;;;;;;;8.00;4.20;;;15.80;99.90;;;;;;5111711;28;20583;-60
2022/07/22 06:28:22;;;;;;;9.23;4.07;;;15.90;99.90;;;;;;5111789;28;20236;-60
2022/07/22 06:30:50;;;;;;;6.30;3.93;;;15.90;99.90;;;;;;5111965;28;20300;-61
2022/07/22 06:33:16;;;;;;;6.30;3.90;;;15.90;99.90;;;;;;5112551;28;20276;-62
2022/07/22 06:35:43;;;;;;;8.67;3.73;;;15.90;99.90;;;;;;5111820;28;20204;-60
2022/07/22 06:38:10;;;;;;;6.23;3.00;;;15.80;99.90;;;;;;5111591;28;20926;-64
2022/07/22 06:40:37;;;;;;;5.77;3.70;;;15.60;99.90;;;;;;5111883;28;20744;-66
2022/07/22 06:43:04;;;;;;;5.27;3.30;;;15.70;99.90;;;;;;5111387;28;20256;-62
2022/07/22 06:45:31;;;;;;;9.13;3.07;;;15.80;99.90;;;;;;5112215;28;20268;-63
2022/07/22 06:47:59;;;;;;;5.97;2.80;;;15.70;99.90;;;;;;5111155;28;20608;-60
2022/07/22 06:50:26;;;;;;;10.30;2.97;;;15.80;99.90;;;;;;5111753;28;20235;-62
2022/07/22 06:52:53;;;;;;;5.57;2.10;;;15.80;99.90;;;;;;5100239;28;20215;-64
2022/07/22 06:55:20;;;;;;;7.57;2.53;;;15.90;99.90;;;;;;5111012;28;20219;-65
2022/07/22 06:57:46;;;;;;;7.47;3.07;;;16.00;99.90;;;;;;5110854;28;20203;-62
2022/07/22 07:00:14;;;;;;;9.17;2.60;;;15.80;99.90;;;;;;5111053;28;20227;-66
2022/07/22 07:02:41;;;;;;;5.60;2.20;;;15.90;99.90;;;;;;5111359;28;20211;-63
2022/07/22 07:05:09;;;;;;;10.37;2.60;;;15.90;99.90;;;;;;5111065;28;20211;-63
2022/07/22 07:07:36;;;;;;;5.10;2.30;;;16.00;99.90;;;;;;5110995;28;20212;-62
2022/07/22 07:10:04;;;;;;;4.73;2.07;;;16.10;99.90;;;;;;5110709;28;20219;-62
2022/07/22 07:12:30;;;;;;;8.63;2.10;;;16.00;99.90;;;;;;5111259;28;20211;-62
2022/07/22 07:14:57;;;;;;;3.73;2.30;;;16.10;99.90;;;;;;5110823;28;20211;-60
2022/07/22 07:17:24;;;;;;;3.97;3.00;;;16.10;99.90;;;;;;5111135;28;20204;-61
2022/07/22 07:19:51;;;;;;;8.63;2.97;;;16.20;99.90;;;;;;5111505;28;20660;-62
2022/07/22 07:22:18;;;;;;;9.03;3.53;;;16.20;99.90;;;;;;5110790;28;20613;-62
2022/07/22 07:24:45;;;;;;;7.47;2.80;;;16.20;99.90;;;;;;5110749;28;20690;-63
2022/07/22 07:27:12;;;;;;;5.93;2.67;;;16.20;99.90;;;;;;5110533;28;20552;-61
2022/07/22 07:29:38;;;;;;;5.23;2.73;;;16.30;99.90;;;;;;5110751;28;20721;-62
2022/07/22 07:32:06;;;;;;;3.53;2.80;;;16.30;99.90;;;;;;5111045;28;20673;-62
2022/07/22 07:34:32;;;;;;;4.03;3.23;;;16.30;99.90;;;;;;5111353;28;20231;-62
2022/07/22 07:36:59;;;;;;;5.23;3.37;;;16.40;99.90;;;;;;5113068;28;20207;-62
2022/07/22 07:39:27;;;;;;;6.43;3.50;;;16.40;99.90;;;;;;5112669;28;20228;-62
2022/07/22 07:41:54;;;;;;;8.20;3.80;;;16.60;99.90;;;;;;5115903;28;20217;-63
2022/07/22 07:44:21;;;;;;;7.33;4.10;;;16.70;99.90;;;;;;5113912;28;20203;-62
2022/07/22 07:46:47;;;;;;;7.43;4.40;;;16.90;99.90;;;;;;5114204;28;20622;-63
2022/07/22 07:49:14;;;;;;;6.57;4.37;;;16.90;99.90;;;;;;5114354;28;20227;-63
2022/07/22 07:51:41;;;;;;;6.47;4.43;;;17.00;98.50;;;;;;5114304;27;20212;-66
2022/07/22 07:54:07;;;;;;;4.93;3.70;;;16.90;87.70;;;;;;5114665;27;20231;-60
2022/07/22 07:56:36;;;;;;;4.97;3.83;;;16.90;87.60;;;;;;5113934;28;20204;-62
2022/07/22 07:59:02;;;;;;;12.10;3.80;;;17.00;90.30;;;;;;5114470;28;20232;-60
2022/07/22 08:01:29;;;;;;;9.17;4.20;;;17.10;80.70;;;;;;5114270;28;20204;-60
2022/07/22 08:03:56;;;;;;;9.53;6.63;;;17.00;75.80;;;;;;5114287;28;20203;-60
2022/07/22 08:06:22;;;;;;;6.63;4.70;;;17.00;66.90;;;;;;5113313;28;20203;-65
2022/07/22 08:08:49;;;;;;;6.17;4.67;;;16.90;60.00;;;;;;5114598;28;20615;-65
2022/07/22 08:11:16;;;;;;;6.17;3.90;;;16.80;52.20;;;;;;5114200;28;20611;-63
2022/07/22 08:13:44;;;;;;;5.87;3.93;;;16.90;90.80;;;;;;5113758;27;20239;-62
2022/07/22 08:16:11;;;;;;;4.97;2.80;;;17.00;83.90;;;;;;5113513;28;20256;-63
2022/07/22 08:18:37;;;;;;;4.73;3.00;;;17.00;56.10;;;;;;5113524;28;20222;-66
2022/07/22 08:21:04;;;;;;;6.40;4.30;;;17.20;67.80;;;;;;5114235;28;20208;-65
2022/07/22 08:23:31;;;;;;;5.77;4.37;;;17.40;39.90;;;;;;5113583;28;20200;-56
2022/07/22 08:25:57;;;;;;;5.13;4.00;;;17.50;62.40;;;;;;5113376;28;20253;-64
2022/07/22 08:28:24;;;;;;;6.57;4.73;;;17.60;47.20;;;;;;5112958;28;20203;-63
2022/07/22 08:30:52;;;;;;;8.43;6.43;;;17.80;57.40;;;;;;5113284;28;20246;-62
2022/07/22 08:33:19;;;;;;;6.37;5.70;;;17.90;25.40;;;;;;5113479;28;20713;-62
2022/07/22 08:35:46;;;;;;;8.50;5.97;;;18.00;30.10;;;;;;5113008;28;20231;-61
2022/07/22 08:38:13;;;;;;;7.73;5.90;;;17.80;1.00;;;;;;5113436;28;20287;-64
2022/07/22 08:40:40;;;;;;;9.50;6.43;;;17.90;42.80;;;;;;5113397;28;20224;-62
2022/07/22 08:43:07;;;;;;;8.27;6.70;;;18.00;36.00;;;;;;5113033;28;20264;-62
2022/07/22 08:45:33;;;;;;;8.93;6.83;;;18.00;15.90;;;;;;5112563;28;20204;-62
2022/07/22 08:48:03;;;;;;;9.90;7.50;;;18.10;12.50;;;;;;5111258;28;20204;-62
2022/07/22 08:50:30;;;;;;;9.90;7.10;;;18.30;20.60;;;;;;5112455;28;20231;-62
2022/07/22 08:52:57;;;;;;;8.43;7.03;;;18.40;10.30;;;;;;5113422;28;20204;-63
2022/07/22 08:55:25;;;;;;;9.80;7.27;;;18.60;1.00;;;;;;5113058;28;20294;-63
2022/07/22 08:57:51;;;;;;;15.57;10.37;;;18.60;1.00;;;;;;5112816;28;20199;-61
2022/07/22 09:00:21;;;;;;;13.10;10.23;;;18.40;1.00;;;;;;5113098;28;20288;-61
2022/07/22 09:02:48;;;;;;;14.83;10.83;;;18.50;1.00;;;;;;5113243;28;21080;-61
2022/07/22 09:05:17;;;;;;;13.77;9.47;;;18.30;1.00;;;;;;5113063;28;20252;-59
2022/07/22 09:07:45;;;;;;;11.90;8.97;;;18.10;1.00;;;;;;5112972;28;20265;-65
2022/07/22 09:10:14;;;;;;;11.77;8.40;;;18.10;1.00;;;;;;5112374;27;20846;-65
2022/07/22 09:12:57;;;;;;;13.07;7.60;;;18.20;1.00;;;;;;5112780;28;20211;-63
2022/07/22 09:15:28;;;;;;;11.20;7.87;;;18.00;1.00;;;;;;5112601;28;20200;-63
2022/07/22 09:17:55;;;;;;;9.60;6.73;;;18.00;1.00;;;;;;5112638;27;20364;-63
2022/07/22 09:20:24;;;;;;;8.43;5.40;;;18.00;1.00;;;;;;5112063;28;20292;-62
2022/07/22 09:22:52;;;;;;;10.60;6.57;;;17.90;1.00;;;;;;5112836;27;20276;-63
2022/07/22 09:25:22;;;;;;;9.47;6.53;;;17.90;1.00;;;;;;5112104;28;20615;-63
2022/07/22 09:27:50;;;;;;;14.20;8.53;;;17.90;1.00;;;;;;5112533;28;20214;-63
2022/07/22 09:30:19;;;;;;;12.77;8.97;;;18.00;1.00;;;;;;5112711;28;20280;-65
2022/07/22 09:32:46;;;;;;;17.77;9.80;;;18.10;1.00;;;;;;5112272;28;20207;-64
2022/07/22 09:35:13;;;;;;;12.37;8.67;;;18.10;1.00;;;;;;5112316;28;20628;-65
2022/07/22 09:37:50;;;;;;;11.13;6.80;;;18.10;1.00;;;;;;5112846;27;20721;-62
2022/07/22 09:40:18;;;;;;;10.97;7.53;;;17.80;1.00;;;;;;5112765;28;20234;-63
2022/07/22 09:42:46;;;;;;;8.17;6.00;;;17.80;1.00;;;;;;5112333;28;20203;-63
2022/07/22 09:45:13;;;;;;;12.13;7.40;;;17.70;1.00;;;;;;5112713;28;20260;-64
2022/07/22 09:47:42;;;;;;;9.33;6.10;;;17.80;1.00;;;;;;5112295;28;20208;-62
2022/07/22 09:50:16;;;;;;;9.17;5.90;;;17.90;99.90;;;;;;5111868;28;20277;-64
2022/07/22 09:52:44;;;;;;;13.67;7.03;;;18.00;99.90;;;;;;5112175;28;20198;-63
2022/07/22 09:55:11;;;;;;;9.43;5.80;;;18.00;1.00;;;;;;5111645;27;20231;-64
2022/07/22 09:57:38;;;;;;;15.10;9.90;;;18.10;99.90;;;;;;5111309;28;20208;-63
2022/07/22 10:00:08;;;;;;;13.83;9.07;;;18.10;99.90;;;;;;5111737;27;20227;-64
2022/07/22 10:02:40;;;;;;;17.47;11.40;;;18.20;99.90;;;;;;5111452;28;20212;-65
2022/07/22 10:05:08;;;;;;;19.77;11.83;;;18.30;99.90;;;;;;5111151;28;20264;-65
2022/07/22 10:07:37;;;;;;;18.53;12.43;;;18.40;99.90;;;;;;5112174;27;20203;-65
2022/07/22 10:10:04;;;;;;;16.60;10.67;;;18.50;1.00;;;;;;5112255;28;20864;-61
2022/07/22 10:12:33;;;;;;;23.03;11.73;;;18.50;1.00;;;;;;5112482;28;20872;-65
2022/07/22 10:15:01;;;;;;;15.70;10.53;;;18.50;1.00;;;;;;5111702;28;20626;-64
2022/07/22 10:17:28;;;;;;;18.63;11.37;;;18.40;99.90;;;;;;5111337;28;20208;-64
2022/07/22 10:19:54;;;;;;;17.37;11.33;;;18.50;99.90;;;;;;5111635;28;20649;-64
2022/07/22 10:22:51;;;;;;;18.13;10.80;;;18.50;99.90;;;;;;5111338;28;20206;-65
2022/07/22 10:25:19;;;;;;;20.73;12.13;;;18.40;1.00;;;;;;5111056;28;20199;-65
2022/07/22 10:27:49;;;;;;;16.53;10.77;;;18.60;99.90;;;;;;5110796;28;20207;-64
2022/07/22 10:30:19;;;;;;;16.90;11.30;;;18.70;99.90;;;;;;5111938;28;20219;-64
2022/07/22 10:32:46;;;;;;;18.17;12.00;;;18.80;1.00;;;;;;5111914;28;20260;-62
2022/07/22 10:35:26;;;;;;;18.30;11.53;;;18.90;99.90;;;;;;5110886;28;20774;-62
2022/07/22 10:37:55;;;;;;;17.90;11.53;;;18.90;99.90;;;;;;5111353;28;20211;-62
2022/07/22 10:40:24;;;;;;;19.80;11.70;;;19.00;99.90;;;;;;5111015;28;20280;-63
2022/07/22 10:43:06;;;;;;;17.13;10.93;;;18.90;99.90;;;;;;5111566;28;20214;-63
2022/07/22 10:45:34;;;;;;;21.33;11.67;;;19.00;99.90;;;;;;5111012;28;20582;-63
2022/07/22 10:48:04;;;;;;;18.07;11.13;;;19.10;1.00;;;;;;5111146;28;20222;-62
2022/07/22 10:50:49;;;;;;;14.57;10.23;;;19.10;1.00;;;;;;5111014;28;20263;-63
2022/07/22 10:53:18;;;;;;;15.53;10.37;;;19.20;95.80;;;;;;5111686;28;20207;-63
2022/07/22 10:56:09;;;;;;;19.10;10.43;;;19.30;99.90;;;;;;5111218;28;20257;-66
2022/07/22 10:58:52;;;;;;;17.23;11.23;;;19.30;1.00;;;;;;5111275;28;20662;-65
2022/07/22 11:01:21;;;;;;;17.97;10.93;;;18.90;1.00;;;;;;5111213;28;20207;-64
2022/07/22 11:03:49;;;;;;;19.03;11.53;;;18.80;99.90;;;;;;5111368;28;20208;-63
2022/07/22 11:06:19;;;;;;;17.87;11.90;;;18.70;1.00;;;;;;5110924;28;20628;-63
2022/07/22 11:08:48;;;;;;;16.17;11.03;;;18.90;99.90;;;;;;5110931;28;20280;-63
2022/07/22 11:11:15;;;;;;;17.60;12.03;;;18.90;99.90;;;;;;5111546;28;20317;-62
2022/07/22 11:13:44;;;;;;;22.33;12.43;;;18.90;94.80;;;;;;5111931;28;20295;-63
2022/07/22 11:16:21;;;;;;;26.27;17.00;;;18.90;36.70;;;;;;5115260;28;20207;-64
2022/07/22 11:18:49;;;;;;;30.73;19.10;;;18.80;1.00;;;;;;5114668;28;20226;-63
2022/07/22 11:21:17;;;;;;;20.60;11.87;;;18.90;1.00;;;;;;5115169;28;20199;-63
2022/07/22 11:23:45;;;;;;;24.37;12.97;;;18.80;99.90;;;;;;5115123;28;20290;-64
2022/07/22 11:26:15;;;;;;;22.27;12.57;;;18.80;99.90;;;;;;5114102;28;20214;-65
2022/07/22 11:28:43;;;;;;;20.93;12.40;;;18.80;1.00;;;;;;5115198;28;20652;-67
2022/07/22 11:31:11;;;;;;;23.57;13.07;;;18.80;1.00;;;;;;5114770;28;20666;-66
2022/07/22 11:33:39;;;;;;;22.70;13.97;;;18.90;1.00;;;;;;5115193;27;20207;-66
2022/07/22 11:36:09;;;;;;;22.20;12.57;;;19.00;1.00;;;;;;5113802;28;20277;-66
2022/07/22 11:38:48;;;;;;;19.73;12.67;;;19.10;99.90;;;;;;5115096;28;20211;-62
2022/07/22 11:41:17;;;;;;;22.50;13.73;;;19.20;99.90;;;;;;5114716;28;20207;-62
2022/07/22 11:43:45;;;;;;;20.47;13.10;;;19.20;99.90;;;;;;5114754;28;20211;-62
2022/07/22 11:46:13;;;;;;;23.03;12.83;;;19.40;1.00;;;;;;5114001;28;20264;-62
2022/07/22 11:48:42;;;;;;;24.57;13.80;;;19.40;99.90;;;;;;5114120;28;20722;-62
2022/07/22 11:51:10;;;;;;;23.47;13.17;;;19.40;18.70;;;;;;5114680;28;20298;-62
2022/07/22 11:53:38;;;;;;;30.13;13.93;;;19.50;1.00;;;;;;5113926;28;20658;-62
2022/07/22 11:56:07;;;;;;;22.90;13.30;;;19.60;1.00;;;;;;5113926;27;20272;-65
2022/07/22 11:58:39;;;;;;;19.47;12.43;;;19.70;99.90;;;;;;5114299;28;20204;-66
2022/07/22 12:01:06;;;;;;;23.63;13.23;;;19.90;99.90;;;;;;5114611;28;20200;-66
2022/07/22 12:03:34;;;;;;;23.10;13.77;;;20.00;1.00;;;;;;5114539;28;20278;-64
2022/07/22 12:06:04;;;;;;;23.73;14.03;;;20.00;1.00;;;;;;5113512;28;20210;-66
2022/07/22 12:08:31;;;;;;;25.17;13.83;;;19.70;82.60;;;;;;5114308;27;20207;-62
2022/07/22 12:10:58;;;;;;;24.07;13.43;;;19.70;1.00;;;;;;5114268;28;20224;-62
2022/07/22 12:13:30;;;;;;;21.37;13.50;;;19.90;99.90;;;;;;5114396;28;20207;-63
2022/07/22 12:15:57;;;;;;;24.13;13.10;;;20.30;99.90;;;;;;5113344;28;20733;-62
2022/07/22 12:18:25;;;;;;;21.33;13.03;;;20.60;1.00;;;;;;5113833;28;20697;-63
2022/07/22 12:20:53;;;;;;;22.77;13.47;;;20.90;99.90;;;;;;5114060;27;20227;-62
2022/07/22 12:23:22;;;;;;;21.03;13.10;;;20.90;1.00;;;;;;5114521;28;20207;-63
2022/07/22 12:25:53;;;;;;;23.50;13.40;;;21.00;1.00;;;;;;5113228;28;20208;-63
2022/07/22 12:28:19;;;;;;;20.77;13.17;;;20.70;1.00;;;;;;5113663;28;20689;-62
2022/07/22 12:30:46;;;;;;;20.37;12.27;;;20.40;1.00;;;;;;5114185;28;20232;-61
2022/07/22 12:33:18;;;;;;;25.53;13.40;;;20.30;1.00;;;;;;5113812;28;20207;-61
2022/07/22 12:35:57;;;;;;;19.93;12.27;;;20.30;99.90;;;;;;5113560;28;20264;-63
2022/07/22 12:38:25;;;;;;;21.33;12.53;;;20.20;99.90;;;;;;5113467;28;20204;-61
2022/07/22 12:40:52;;;;;;;21.60;13.17;;;20.20;99.90;;;;;;5113858;28;20223;-61